createdAt,value
2018-05-31T00:00:41.646Z,32.60
2018-05-31T00:02:45.167Z,25.27
2018-05-31T00:04:49.497Z,25.30
2018-05-31T00:06:53.049Z,24.83
2018-05-31T00:08:56.518Z,21.10
2018-05-31T00:11:01.254Z,17.37
2018-05-31T00:13:04.764Z,12.90
2018-05-31T00:15:09.025Z,18.37
2018-05-31T00:17:12.595Z,13.63
2018-05-31T00:19:16.137Z,22.00
2018-05-31T00:21:19.633Z,33.73
2018-05-31T00:23:23.240Z,19.73
2018-05-31T00:25:26.732Z,17.03
2018-05-31T00:27:30.262Z,22.37
2018-05-31T00:29:33.829Z,25.83
2018-05-31T00:31:37.346Z,22.67
2018-05-31T00:33:41.681Z,23.87
2018-05-31T00:35:45.935Z,25.47
2018-05-31T00:37:49.436Z,22.47
2018-05-31T00:39:52.983Z,20.20
2018-05-31T00:41:57.287Z,20.60
2018-05-31T00:44:01.543Z,24.50
2018-05-31T00:46:05.058Z,25.30
2018-05-31T00:48:10.048Z,25.97
2018-05-31T00:50:13.575Z,30.07
2018-05-31T00:52:17.899Z,25.20
2018-05-31T00:54:21.435Z,22.23
2018-05-31T00:56:24.999Z,22.60
2018-05-31T00:58:28.512Z,30.67
2018-05-31T01:00:32.871Z,33.47
2018-05-31T01:02:37.238Z,31.43
2018-05-31T01:04:41.644Z,34.57
2018-05-31T01:06:45.142Z,34.27
2018-05-31T01:08:49.632Z,32.23
2018-05-31T01:10:53.162Z,31.70
2018-05-31T01:12:56.715Z,37.07
2018-05-31T01:15:00.297Z,35.07
2018-05-31T01:17:03.910Z,29.33
2018-05-31T01:19:07.832Z,36.10
2018-05-31T01:21:11.302Z,37.40
2018-05-31T01:23:14.831Z,41.13
2018-05-31T01:25:18.374Z,40.47
2018-05-31T01:27:21.878Z,35.53
2018-05-31T01:29:25.409Z,37.60
2018-05-31T01:31:28.942Z,39.23
2018-05-31T01:33:33.195Z,35.40
2018-05-31T01:35:36.704Z,39.63
2018-05-31T01:37:40.189Z,39.00
2018-05-31T01:39:43.722Z,44.40
2018-05-31T01:41:48.065Z,43.57
2018-05-31T01:43:51.577Z,42.33
2018-05-31T01:45:58.466Z,33.40
2018-05-31T01:48:02.024Z,37.10
2018-05-31T01:50:05.528Z,40.77
2018-05-31T01:52:09.079Z,37.83
2018-05-31T01:54:12.675Z,37.97
2018-05-31T01:56:16.947Z,36.73
2018-05-31T01:58:20.579Z,37.23
2018-05-31T02:00:24.097Z,38.23
2018-05-31T02:02:28.326Z,33.87
2018-05-31T02:04:32.206Z,39.13
2018-05-31T02:06:35.762Z,34.17
2018-05-31T02:08:39.266Z,39.37
2018-05-31T02:10:42.812Z,43.67
2018-05-31T02:12:47.129Z,39.83
2018-05-31T02:14:51.420Z,36.50
2018-05-31T02:16:54.917Z,34.53
2018-05-31T02:18:58.416Z,38.93
2018-05-31T02:21:03.008Z,49.70
2018-05-31T02:23:07.270Z,44.80
2018-05-31T02:25:10.794Z,35.47
2018-05-31T02:27:14.284Z,37.47
2018-05-31T02:29:17.799Z,39.07
2018-05-31T02:31:22.078Z,41.93
2018-05-31T02:33:25.731Z,37.93
2018-05-31T02:35:29.223Z,36.03
2018-05-31T02:37:32.730Z,46.33
2018-05-31T02:39:37.022Z,38.80
2018-05-31T02:41:41.348Z,33.07
2018-05-31T02:43:44.923Z,33.83
2018-05-31T02:45:48.447Z,31.20
2018-05-31T02:47:52.778Z,35.10
2018-05-31T02:49:56.294Z,30.93
2018-05-31T02:51:59.846Z,24.90
2018-05-31T02:54:03.416Z,25.40
2018-05-31T02:56:06.987Z,22.53
2018-05-31T02:58:10.557Z,27.60
2018-05-31T03:00:14.069Z,28.73
2018-05-31T03:02:17.620Z,30.40
2018-05-31T03:04:21.140Z,26.20
2018-05-31T03:06:24.819Z,28.07
2018-05-31T03:08:28.336Z,33.03
2018-05-31T03:10:32.646Z,33.40
2018-05-31T03:12:36.938Z,33.27
2018-05-31T03:14:40.437Z,37.37
2018-05-31T03:16:44.134Z,35.87
2018-05-31T03:18:47.612Z,31.23
2018-05-31T03:20:51.175Z,30.97
2018-05-31T03:22:54.905Z,32.93
2018-05-31T03:24:58.414Z,25.23
2018-05-31T03:27:01.908Z,20.87
2018-05-31T03:29:06.226Z,19.63
2018-05-31T03:31:10.580Z,21.40
2018-05-31T03:33:14.082Z,29.40
2018-05-31T03:35:17.617Z,28.03
2018-05-31T03:37:21.172Z,24.47
2018-05-31T03:39:24.725Z,21.40
2018-05-31T03:41:28.330Z,19.67
2018-05-31T03:43:31.918Z,17.90
2018-05-31T03:45:36.165Z,18.07
2018-05-31T03:47:40.147Z,15.93
2018-05-31T03:49:44.400Z,14.30
2018-05-31T03:51:47.910Z,14.57
2018-05-31T03:53:52.259Z,16.73
2018-05-31T03:55:55.768Z,16.50
2018-05-31T03:58:00.011Z,17.37
2018-05-31T04:00:03.613Z,16.60
2018-05-31T04:02:07.135Z,16.57
2018-05-31T04:04:10.653Z,17.73
2018-05-31T04:06:14.959Z,19.60
2018-05-31T04:08:18.461Z,22.00
2018-05-31T04:10:22.755Z,22.20
2018-05-31T04:12:27.016Z,22.57
2018-05-31T04:14:31.284Z,19.90
2018-05-31T04:16:35.232Z,16.80
2018-05-31T04:18:38.740Z,21.20
2018-05-31T04:20:42.234Z,20.17
2018-05-31T04:22:45.778Z,24.77
2018-05-31T04:24:49.355Z,26.07
2018-05-31T04:26:52.810Z,26.90
2018-05-31T04:28:56.392Z,33.67
2018-05-31T04:30:59.990Z,28.90
2018-05-31T04:33:03.534Z,30.10
2018-05-31T04:35:07.082Z,32.50
2018-05-31T04:37:10.580Z,26.60
2018-05-31T04:39:14.907Z,29.47
2018-05-31T04:41:18.462Z,31.23
2018-05-31T04:43:21.991Z,30.10
2018-05-31T04:45:25.889Z,25.67
2018-05-31T04:47:29.503Z,23.90
2018-05-31T04:49:33.069Z,23.30
2018-05-31T04:51:37.415Z,24.60
2018-05-31T04:53:40.942Z,25.43
2018-05-31T04:55:44.542Z,35.43
2018-05-31T04:57:48.089Z,34.17
2018-05-31T04:59:51.611Z,33.57
2018-05-31T05:01:55.265Z,32.93
2018-05-31T05:03:59.586Z,31.20
2018-05-31T05:06:03.242Z,27.00
2018-05-31T05:08:07.586Z,32.30
2018-05-31T05:10:11.745Z,31.40
2018-05-31T05:12:15.534Z,28.33
2018-05-31T05:14:19.840Z,31.40
2018-05-31T05:16:23.313Z,35.57
2018-05-31T05:18:27.614Z,38.17
2018-05-31T05:20:31.952Z,38.03
2018-05-31T05:22:35.442Z,31.23
2018-05-31T05:24:38.944Z,38.10
2018-05-31T05:26:43.251Z,39.57
2018-05-31T05:28:46.784Z,41.33
2018-05-31T05:30:50.401Z,40.53
2018-05-31T05:32:53.918Z,38.87
2018-05-31T05:34:58.222Z,37.67
2018-05-31T05:37:01.753Z,33.60
2018-05-31T05:39:06.125Z,34.80
2018-05-31T05:41:09.655Z,36.00
2018-05-31T05:43:13.943Z,39.07
2018-05-31T05:45:17.462Z,38.63
2018-05-31T05:47:21.830Z,36.23
2018-05-31T05:49:25.311Z,35.53
2018-05-31T05:51:28.816Z,30.30
2018-05-31T05:53:32.344Z,22.23
2018-05-31T05:55:37.058Z,17.50
2018-05-31T05:57:40.542Z,32.47
2018-05-31T05:59:44.039Z,32.40
2018-05-31T06:01:47.600Z,31.17
2018-05-31T06:03:51.150Z,26.47
2018-05-31T06:05:55.480Z,31.17
2018-05-31T06:07:59.003Z,32.80
2018-05-31T06:10:02.590Z,32.93
2018-05-31T06:12:09.484Z,33.37
2018-05-31T06:14:13.949Z,30.70
2018-05-31T06:16:19.727Z,33.10
2018-05-31T06:18:23.884Z,33.47
2018-05-31T06:20:31.712Z,33.13
2018-05-31T06:22:38.810Z,31.07
2018-05-31T06:24:42.353Z,31.37
2018-05-31T06:26:46.728Z,31.70
2018-05-31T06:28:50.229Z,31.43
2018-05-31T06:30:53.762Z,26.13
2018-05-31T06:32:59.920Z,30.90
2018-05-31T06:35:05.902Z,30.50
2018-05-31T06:37:09.433Z,31.33
2018-05-31T06:39:14.094Z,28.37
2018-05-31T06:41:18.628Z,28.00
2018-05-31T06:43:24.674Z,29.23
2018-05-31T06:45:28.170Z,28.87
2018-05-31T06:47:32.490Z,29.63
2018-05-31T06:49:36.015Z,27.07
2018-05-31T06:51:39.613Z,21.77
2018-05-31T06:53:43.163Z,28.33
2018-05-31T06:55:48.306Z,27.23
2018-05-31T06:57:51.838Z,22.40
2018-05-31T06:59:55.405Z,16.27
2018-05-31T07:01:59.725Z,26.63
2018-05-31T07:04:03.236Z,22.47
2018-05-31T07:06:06.743Z,27.00
2018-05-31T07:08:10.325Z,18.23
2018-05-31T07:10:14.567Z,25.67
2018-05-31T07:12:20.431Z,22.20
2018-05-31T07:14:26.493Z,23.07
2018-05-31T07:16:30.900Z,22.50
2018-05-31T07:18:34.352Z,22.50
2018-05-31T07:20:38.655Z,19.17
2018-05-31T07:22:42.173Z,21.80
2018-05-31T07:24:45.809Z,14.97
2018-05-31T07:26:49.300Z,19.93
2018-05-31T07:28:53.568Z,16.93
2018-05-31T07:30:57.090Z,13.60
2018-05-31T07:33:00.576Z,14.67
2018-05-31T07:35:05.337Z,16.27
2018-05-31T07:37:08.803Z,17.00
2018-05-31T07:39:13.699Z,13.87
2018-05-31T07:41:17.703Z,12.30
2018-05-31T07:43:22.378Z,13.90
2018-05-31T07:45:25.858Z,16.27
2018-05-31T07:47:29.389Z,11.83
2018-05-31T07:49:32.862Z,12.67
2018-05-31T07:51:37.176Z,14.70
2018-05-31T07:53:40.701Z,15.00
2018-05-31T07:55:45.015Z,15.27
2018-05-31T07:57:49.296Z,14.53
2018-05-31T07:59:52.820Z,11.33
2018-05-31T08:01:56.325Z,16.23
2018-05-31T08:04:00.787Z,14.00
2018-05-31T08:06:04.339Z,12.43
2018-05-31T08:08:08.625Z,12.10
2018-05-31T08:10:12.123Z,13.50
2018-05-31T08:12:16.415Z,11.03
2018-05-31T08:14:19.935Z,10.70
2018-05-31T08:16:24.255Z,13.67
2018-05-31T08:18:27.840Z,12.07
2018-05-31T08:20:31.334Z,14.27
2018-05-31T08:22:34.871Z,12.73
2018-05-31T08:24:39.131Z,12.77
2018-05-31T08:26:42.760Z,10.40
2018-05-31T08:28:47.009Z,10.70
2018-05-31T08:30:50.467Z,10.77
2018-05-31T08:32:54.713Z,10.83
2018-05-31T08:34:58.264Z,14.20
2018-05-31T08:37:01.899Z,14.90
2018-05-31T08:39:06.291Z,14.40
2018-05-31T08:41:09.815Z,10.33
2018-05-31T08:43:13.434Z,13.93
2018-05-31T08:45:17.715Z,14.60
2018-05-31T08:47:21.223Z,13.50
2018-05-31T08:49:24.798Z,16.07
2018-05-31T08:51:28.273Z,15.10
2018-05-31T08:53:31.830Z,9.90
2018-05-31T08:55:35.382Z,14.07
2018-05-31T08:57:39.623Z,15.20
2018-05-31T08:59:43.226Z,13.03
2018-05-31T09:01:46.750Z,13.90
2018-05-31T09:03:50.295Z,14.23
2018-05-31T09:05:53.815Z,12.00
2018-05-31T09:07:57.334Z,14.83
2018-05-31T09:10:00.847Z,17.03
2018-05-31T09:12:04.368Z,15.73
2018-05-31T09:14:07.953Z,17.00
2018-05-31T09:16:11.474Z,12.57
2018-05-31T09:18:14.966Z,15.73
2018-05-31T09:20:18.531Z,14.27
2018-05-31T09:22:22.851Z,17.37
2018-05-31T09:24:27.113Z,16.90
2018-05-31T09:26:30.664Z,16.30
2018-05-31T09:28:34.935Z,15.43
2018-05-31T09:30:38.426Z,16.93
2018-05-31T09:32:41.906Z,16.17
2018-05-31T09:34:45.414Z,13.97
2018-05-31T09:36:50.335Z,15.23
2018-05-31T09:38:53.895Z,15.23
2018-05-31T09:40:58.149Z,14.33
2018-05-31T09:43:02.047Z,12.30
2018-05-31T09:45:05.670Z,10.98
2018-05-31T09:47:09.220Z,13.73
2018-05-31T09:49:13.112Z,14.17
2018-05-31T09:51:17.394Z,15.57
2018-05-31T09:53:21.675Z,14.03
2018-05-31T09:55:25.154Z,15.93
2018-05-31T09:57:28.651Z,12.40
2018-05-31T09:59:32.581Z,14.60
2018-05-31T10:01:36.039Z,14.43
2018-05-31T10:03:39.510Z,12.20
2018-05-31T10:05:43.076Z,12.77
2018-05-31T10:07:46.591Z,12.50
2018-05-31T10:09:50.170Z,13.73
2018-05-31T10:11:53.722Z,11.57
2018-05-31T10:13:57.210Z,10.87
2018-05-31T10:16:00.732Z,11.43
2018-05-31T10:18:04.291Z,8.97
2018-05-31T10:20:07.816Z,11.93
2018-05-31T10:22:11.326Z,12.33
2018-05-31T10:24:14.821Z,13.63
2018-05-31T10:26:18.306Z,10.43
2018-05-31T10:28:21.824Z,13.67
2018-05-31T10:30:25.307Z,13.00
2018-05-31T10:32:29.619Z,13.27
2018-05-31T10:34:33.933Z,12.03
2018-05-31T10:36:38.191Z,11.67
2018-05-31T10:38:41.739Z,10.03
2018-05-31T10:40:45.214Z,11.80
2018-05-31T10:42:48.726Z,11.63
2018-05-31T10:44:52.261Z,13.93
2018-05-31T10:46:55.765Z,14.20
2018-05-31T10:48:59.397Z,12.97
2018-05-31T10:51:03.658Z,12.60
2018-05-31T10:53:07.194Z,12.20
2018-05-31T10:55:10.883Z,12.33
2018-05-31T10:57:14.356Z,11.93
2018-05-31T10:59:18.627Z,10.77
2018-05-31T11:01:22.218Z,11.60
2018-05-31T11:03:25.755Z,11.30
2018-05-31T11:05:29.219Z,9.00
2018-05-31T11:07:32.819Z,10.60
2018-05-31T11:09:36.300Z,11.60
2018-05-31T11:11:39.827Z,11.57
2018-05-31T11:13:43.323Z,10.27
2018-05-31T11:15:47.602Z,11.00
2018-05-31T11:17:51.147Z,6.90
2018-05-31T11:19:54.742Z,6.97
2018-05-31T11:21:58.316Z,11.33
2018-05-31T11:24:02.541Z,7.83
2018-05-31T11:26:06.816Z,7.50
2018-05-31T11:28:10.315Z,10.03
2018-05-31T11:30:13.830Z,8.73
2018-05-31T11:32:17.318Z,9.67
2018-05-31T11:34:20.836Z,10.13
2018-05-31T11:36:25.137Z,8.33
2018-05-31T11:38:28.614Z,7.77
2018-05-31T11:40:32.188Z,8.47
2018-05-31T11:42:35.737Z,7.77
2018-05-31T11:44:39.223Z,8.07
2018-05-31T11:46:43.467Z,10.60
2018-05-31T11:48:46.979Z,7.17
2018-05-31T11:50:50.533Z,7.87
2018-05-31T11:52:54.818Z,8.63
2018-05-31T11:54:58.285Z,9.33
2018-05-31T11:57:01.829Z,7.20
2018-05-31T11:59:06.526Z,7.43
2018-05-31T12:01:09.990Z,8.70
2018-05-31T12:03:13.492Z,8.50
2018-05-31T12:05:17.009Z,8.53
2018-05-31T12:07:20.474Z,7.93
2018-05-31T12:09:23.978Z,8.27
2018-05-31T12:11:27.575Z,8.88
2018-05-31T12:13:31.076Z,7.87
2018-05-31T12:15:34.704Z,8.77
2018-05-31T12:17:39.020Z,8.73
2018-05-31T12:19:42.506Z,8.83
2018-05-31T12:21:46.043Z,8.30
2018-05-31T12:23:49.510Z,9.32
2018-05-31T12:25:53.748Z,9.27
2018-05-31T12:27:57.307Z,8.60
2018-05-31T12:30:00.755Z,8.50
2018-05-31T12:32:04.247Z,8.85
2018-05-31T12:34:07.758Z,7.62
2018-05-31T12:36:12.374Z,10.30
2018-05-31T12:38:16.228Z,8.93
2018-05-31T12:40:20.498Z,6.53
2018-05-31T12:42:25.181Z,8.20
2018-05-31T12:44:29.576Z,8.52
2018-05-31T12:46:33.861Z,8.95
2018-05-31T12:48:37.435Z,8.55
2018-05-31T12:50:40.945Z,9.13
2018-05-31T12:52:44.434Z,9.55
2018-05-31T12:54:47.958Z,9.32
2018-05-31T12:56:51.439Z,9.13
2018-05-31T12:58:54.947Z,8.80
2018-05-31T13:00:59.744Z,8.73
2018-05-31T13:03:03.239Z,7.47
2018-05-31T13:05:07.558Z,8.52
2018-05-31T13:07:11.077Z,8.93
2018-05-31T13:09:15.309Z,8.57
2018-05-31T13:11:18.961Z,8.93
2018-05-31T13:13:22.459Z,9.25
2018-05-31T13:15:26.250Z,9.48
2018-05-31T13:17:29.756Z,9.80
2018-05-31T13:19:34.015Z,8.38
2018-05-31T13:21:37.868Z,8.07
2018-05-31T13:23:41.339Z,8.73
2018-05-31T13:25:44.838Z,8.00
2018-05-31T13:27:48.482Z,8.00
2018-05-31T13:29:52.838Z,7.05
2018-05-31T13:31:56.383Z,7.70
2018-05-31T13:33:59.938Z,8.05
2018-05-31T13:36:03.449Z,7.97
2018-05-31T13:38:07.008Z,7.90
2018-05-31T13:40:10.561Z,7.35
2018-05-31T13:42:14.817Z,6.93
2018-05-31T13:44:18.308Z,8.13
2018-05-31T13:46:21.840Z,7.43
2018-05-31T13:48:25.314Z,6.25
2018-05-31T13:50:28.822Z,7.60
2018-05-31T13:52:32.385Z,7.62
2018-05-31T13:54:36.879Z,7.60
2018-05-31T13:56:41.920Z,7.07
2018-05-31T13:58:46.300Z,7.65
2018-05-31T14:00:50.649Z,7.07
2018-05-31T14:02:54.116Z,7.00
2018-05-31T14:04:57.787Z,7.68
2018-05-31T14:07:01.271Z,7.97
2018-05-31T14:09:05.514Z,7.78
2018-05-31T14:11:09.042Z,7.00
2018-05-31T14:13:13.325Z,8.80
2018-05-31T14:15:16.801Z,8.60
2018-05-31T14:17:20.326Z,6.97
2018-05-31T14:19:23.812Z,9.45
2018-05-31T14:21:27.392Z,7.90
2018-05-31T14:23:30.874Z,7.65
2018-05-31T14:25:35.109Z,7.68
2018-05-31T14:27:38.607Z,7.97
2018-05-31T14:29:42.083Z,8.20
2018-05-31T14:31:45.599Z,7.68
2018-05-31T14:33:49.568Z,6.95
2018-05-31T14:35:53.043Z,7.65
2018-05-31T14:37:56.506Z,8.45
2018-05-31T14:40:00.048Z,6.82
2018-05-31T14:42:03.507Z,7.68
2018-05-31T14:44:07.056Z,8.52
2018-05-31T14:46:10.592Z,8.65
2018-05-31T14:48:14.841Z,8.05
2018-05-31T14:50:18.862Z,7.80
2018-05-31T14:52:22.350Z,9.25
2018-05-31T14:54:25.866Z,8.20
2018-05-31T14:56:29.391Z,8.82
2018-05-31T14:58:33.269Z,9.25
2018-05-31T15:00:36.759Z,8.70
2018-05-31T15:02:40.266Z,9.07
2018-05-31T15:04:45.382Z,8.50
2018-05-31T15:06:48.872Z,7.82
2018-05-31T15:08:53.175Z,9.13
2018-05-31T15:10:56.687Z,8.05
2018-05-31T15:13:00.423Z,8.10
2018-05-31T15:15:03.982Z,8.52
2018-05-31T15:17:08.996Z,8.55
2018-05-31T15:19:12.495Z,8.65
2018-05-31T15:21:16.669Z,8.75
2018-05-31T15:23:20.168Z,9.30
2018-05-31T15:25:23.711Z,8.23
2018-05-31T15:27:28.412Z,8.43
2018-05-31T15:29:31.911Z,9.18
2018-05-31T15:31:36.235Z,9.13
2018-05-31T15:33:41.895Z,9.32
2018-05-31T15:35:46.088Z,8.00
2018-05-31T15:37:52.650Z,7.95
2018-05-31T15:39:57.013Z,7.93
2018-05-31T15:42:00.838Z,8.30
2018-05-31T15:44:09.302Z,7.53
2018-05-31T15:46:12.866Z,7.57
2018-05-31T15:48:17.223Z,7.53
2018-05-31T15:50:23.740Z,7.40
2018-05-31T15:52:27.215Z,8.35
2018-05-31T15:54:30.846Z,7.87
2018-05-31T15:56:34.341Z,9.98
2018-05-31T15:58:38.927Z,10.13
2018-05-31T16:00:42.821Z,10.20
2018-05-31T16:02:47.915Z,10.40
2018-05-31T16:04:53.010Z,11.20
2018-05-31T16:06:56.543Z,10.23
2018-05-31T16:09:00.038Z,11.00
2018-05-31T16:11:03.632Z,11.60
2018-05-31T16:13:08.999Z,11.30
2018-05-31T16:15:14.735Z,9.33
2018-05-31T16:17:18.255Z,10.50
2018-05-31T16:19:23.102Z,10.00
2018-05-31T16:21:26.662Z,10.37
2018-05-31T16:23:30.167Z,9.67
2018-05-31T16:25:34.411Z,8.03
2018-05-31T16:27:38.101Z,10.33
2018-05-31T16:29:41.607Z,10.23
2018-05-31T16:31:45.100Z,10.07
2018-05-31T16:33:49.024Z,10.30
2018-05-31T16:35:52.531Z,10.70
2018-05-31T16:37:56.004Z,12.30
2018-05-31T16:39:59.849Z,10.20
2018-05-31T16:42:03.411Z,10.73
2018-05-31T16:44:07.428Z,10.70
2018-05-31T16:46:11.332Z,10.67
2018-05-31T16:48:14.811Z,12.83
2018-05-31T16:50:18.352Z,11.37
2018-05-31T16:52:22.247Z,12.83
2018-05-31T16:54:25.728Z,13.33
2018-05-31T16:56:29.416Z,12.43
2018-05-31T16:58:32.867Z,14.00
2018-05-31T17:00:36.436Z,13.47
2018-05-31T17:02:40.678Z,15.37
2018-05-31T17:04:44.168Z,14.83
2018-05-31T17:06:48.535Z,15.90
2018-05-31T17:08:52.819Z,15.57
2018-05-31T17:10:56.309Z,15.53
2018-05-31T17:13:00.222Z,13.90
2018-05-31T17:15:03.752Z,14.07
2018-05-31T17:17:07.227Z,14.53
2018-05-31T17:19:10.759Z,15.23
2018-05-31T17:21:15.737Z,11.83
2018-05-31T17:23:19.257Z,13.90
2018-05-31T17:25:22.749Z,14.20
2018-05-31T17:27:26.230Z,14.43
2018-05-31T17:29:29.680Z,14.87
2018-05-31T17:31:33.532Z,14.50
2018-05-31T17:33:37.033Z,14.47
2018-05-31T17:35:40.551Z,15.37
2018-05-31T17:37:44.100Z,15.30
2018-05-31T17:39:48.011Z,14.73
2018-05-31T17:41:52.250Z,10.83
2018-05-31T17:43:56.523Z,12.63
2018-05-31T17:46:00.047Z,9.80
2018-05-31T17:48:03.572Z,12.73
2018-05-31T17:50:07.076Z,13.60
2018-05-31T17:52:11.426Z,13.70
2018-05-31T17:54:14.941Z,14.70
2018-05-31T17:56:18.433Z,16.27
2018-05-31T17:58:23.133Z,15.97
2018-05-31T18:00:26.653Z,15.33
2018-05-31T18:02:30.166Z,14.40
2018-05-31T18:04:34.466Z,15.10
2018-05-31T18:06:37.933Z,14.50
2018-05-31T18:08:41.499Z,13.20
2018-05-31T18:10:44.997Z,13.80
2018-05-31T18:12:48.499Z,14.37
2018-05-31T18:14:52.036Z,12.83
2018-05-31T18:16:55.523Z,13.83
2018-05-31T18:18:59.053Z,13.63
2018-05-31T18:21:03.339Z,14.40
2018-05-31T18:23:06.915Z,14.20
2018-05-31T18:25:10.458Z,14.00
2018-05-31T18:27:14.751Z,13.30
2018-05-31T18:29:18.248Z,13.70
2018-05-31T18:31:21.769Z,12.07
2018-05-31T18:33:26.030Z,9.30
2018-05-31T18:35:29.526Z,8.73
2018-05-31T18:37:33.047Z,8.17
2018-05-31T18:39:36.492Z,9.17
2018-05-31T18:41:40.028Z,7.93
2018-05-31T18:43:44.307Z,7.80
2018-05-31T18:45:47.950Z,9.37
2018-05-31T18:47:51.420Z,11.27
2018-05-31T18:49:54.931Z,11.60
2018-05-31T18:51:59.332Z,9.80
2018-05-31T18:54:02.867Z,9.00
2018-05-31T18:56:06.365Z,10.63
2018-05-31T18:58:09.916Z,11.07
2018-05-31T19:00:13.507Z,11.13
2018-05-31T19:02:17.081Z,11.53
2018-05-31T19:04:20.547Z,11.87
2018-05-31T19:06:24.030Z,9.47
2018-05-31T19:08:28.343Z,9.83
2018-05-31T19:10:31.840Z,11.77
2018-05-31T19:12:41.003Z,11.10
2018-05-31T19:14:44.525Z,11.53
2018-05-31T19:16:48.009Z,9.13
2018-05-31T19:18:57.223Z,11.80
2018-05-31T19:21:00.742Z,11.00
2018-05-31T19:23:04.281Z,10.80
2018-05-31T19:25:13.563Z,10.17
2018-05-31T19:27:17.050Z,10.53
2018-05-31T19:29:20.529Z,11.27
2018-05-31T19:31:24.073Z,11.97
2018-05-31T19:33:27.555Z,12.67
2018-05-31T19:38:11.871Z,10.50
2018-05-31T19:40:16.057Z,10.20
2018-05-31T19:42:25.036Z,10.10
2018-05-31T19:44:34.059Z,6.40
2018-05-31T19:46:37.486Z,10.07
2018-05-31T19:48:41.702Z,7.37
2018-05-31T19:50:45.138Z,6.80
2018-05-31T19:52:54.152Z,7.60
2018-05-31T19:54:58.306Z,8.60
2018-05-31T19:57:01.723Z,7.93
2018-05-31T19:59:10.736Z,7.17
2018-05-31T20:01:20.001Z,9.17
2018-05-31T20:03:29.094Z,8.77
2018-05-31T20:05:32.522Z,10.60
2018-05-31T20:07:36.708Z,12.17
2018-05-31T20:09:40.196Z,14.07
2018-05-31T20:11:43.625Z,13.20
2018-05-31T20:13:47.785Z,9.47
2018-05-31T20:15:52.003Z,11.10
2018-05-31T20:17:55.459Z,11.20
2018-05-31T20:19:59.716Z,8.83
2018-05-31T20:22:03.308Z,6.00
2018-05-31T20:24:06.743Z,10.20
2018-05-31T20:26:10.211Z,10.40
2018-05-31T20:28:14.491Z,11.43
2018-05-31T20:30:17.995Z,12.07
2018-05-31T20:32:21.615Z,11.10
2018-05-31T20:34:25.881Z,11.20
2018-05-31T20:36:29.356Z,10.60
2018-05-31T20:38:33.635Z,10.27
2018-05-31T20:40:37.136Z,8.30
2018-05-31T20:42:40.689Z,9.13
2018-05-31T20:44:44.241Z,9.90
2018-05-31T20:46:47.729Z,9.43
2018-05-31T20:48:51.325Z,9.47
2018-05-31T20:50:54.861Z,10.00
2018-05-31T20:52:58.503Z,10.23
2018-05-31T20:55:02.103Z,10.03
2018-05-31T20:57:05.563Z,9.70
2018-05-31T20:59:09.004Z,10.77
2018-05-31T21:01:13.382Z,11.87
2018-05-31T21:03:16.907Z,11.50
2018-05-31T21:05:20.354Z,10.40
2018-05-31T21:07:23.900Z,10.37
2018-05-31T21:09:27.419Z,10.93
2018-05-31T21:11:30.989Z,10.73
2018-05-31T21:13:37.094Z,13.10
2018-05-31T21:15:41.508Z,12.73
2018-05-31T21:17:46.244Z,12.07
2018-05-31T21:19:49.969Z,11.20
2018-05-31T21:21:53.480Z,11.20
2018-05-31T21:23:57.326Z,12.37
2018-05-31T21:26:00.868Z,11.50
2018-05-31T21:28:04.539Z,12.93
2018-05-31T21:30:08.488Z,10.93
2018-05-31T21:32:12.185Z,11.97
2018-05-31T21:34:15.905Z,10.17
2018-05-31T21:36:20.220Z,10.50
2018-05-31T21:38:25.088Z,12.43
2018-05-31T21:40:29.308Z,13.57
2018-05-31T21:42:32.847Z,12.90
2018-05-31T21:44:36.370Z,12.93
2018-05-31T21:46:40.981Z,13.50
2018-05-31T21:48:45.095Z,13.87
2018-05-31T21:50:49.448Z,12.07
2018-05-31T21:52:52.985Z,12.27
2018-05-31T21:54:57.052Z,13.10
2018-05-31T21:57:00.531Z,13.90
2018-05-31T21:59:04.034Z,10.57
2018-05-31T22:01:07.571Z,11.80
2018-05-31T22:03:11.787Z,12.37
2018-05-31T22:05:16.048Z,12.43
2018-05-31T22:07:19.532Z,13.93
2018-05-31T22:09:22.978Z,14.07
2018-05-31T22:11:27.681Z,15.50
2018-05-31T22:13:31.131Z,14.30
2018-05-31T22:15:35.399Z,16.33
2018-05-31T22:17:38.951Z,14.67
2018-05-31T22:19:42.474Z,15.33
2018-05-31T22:21:45.919Z,12.20
2018-05-31T22:23:49.552Z,14.13
2018-05-31T22:25:53.779Z,12.43
2018-05-31T22:27:57.264Z,14.67
2018-05-31T22:30:00.832Z,14.23
2018-05-31T22:32:04.407Z,14.53
2018-05-31T22:34:07.902Z,15.37
2018-05-31T22:36:11.420Z,13.43
2018-05-31T22:38:14.964Z,14.03
2018-05-31T22:40:19.218Z,18.10
2018-05-31T22:42:22.726Z,15.90
2018-05-31T22:44:26.248Z,18.57
2018-05-31T22:46:30.551Z,19.67
2018-05-31T22:48:34.048Z,18.80
2018-05-31T22:50:37.551Z,17.03
2018-05-31T22:52:41.018Z,18.17
2018-05-31T22:54:44.500Z,17.67
2018-05-31T22:56:48.001Z,19.17
2018-05-31T22:58:51.512Z,18.13
2018-05-31T23:00:55.186Z,19.83
2018-05-31T23:02:58.727Z,19.60
2018-05-31T23:05:02.214Z,20.97
2018-05-31T23:07:06.170Z,17.87
2018-05-31T23:09:09.687Z,19.10
2018-05-31T23:11:14.028Z,18.27
2018-05-31T23:13:18.416Z,14.87
2018-05-31T23:15:21.939Z,15.70
2018-05-31T23:17:26.183Z,15.23
2018-05-31T23:19:29.751Z,16.40
2018-05-31T23:21:33.269Z,15.37
2018-05-31T23:23:36.780Z,17.00
2018-05-31T23:25:40.323Z,15.60
2018-05-31T23:27:43.846Z,17.87
2018-05-31T23:29:47.426Z,14.60
2018-05-31T23:31:51.670Z,15.27
2018-05-31T23:33:55.716Z,16.70
2018-05-31T23:35:59.198Z,15.43
2018-05-31T23:38:02.705Z,19.80
2018-05-31T23:40:07.011Z,17.93
2018-05-31T23:42:10.523Z,16.50
2018-05-31T23:44:14.002Z,16.00
2018-05-31T23:46:18.724Z,20.80
2018-05-31T23:48:23.019Z,16.30
2018-05-31T23:50:26.488Z,19.87
2018-05-31T23:52:30.167Z,14.73
2018-05-31T23:54:34.439Z,13.83
2018-05-31T23:56:37.967Z,12.73
2018-05-31T23:58:42.247Z,8.93
